Time;durP1;ratioP1;P1;durP2;ratioP2;P2;SDS_P1;SDS_P2;PMS_P1;PMS_P2;Temp;Humidity;BMP_temperature;BMP_pressure;BME280_temperature;BME280_humidity;BME280_pressure;Samples;Min_cycle;Max_cycle;Signal;HPM_P1;HPM_P2
2022/03/28 00:00:32;;;;;;;14.13;10.00;;;11.00;78.60;;;;;;5033151;28;20184;-70
2022/03/28 00:02:58;;;;;;;13.20;10.33;;;11.00;79.00;;;;;;5032439;28;20188;-70
2022/03/28 00:05:24;;;;;;;12.77;8.93;;;10.90;78.80;;;;;;5033061;28;20195;-70
2022/03/28 00:07:50;;;;;;;15.30;9.63;;;10.90;78.90;;;;;;5033086;28;20809;-70
2022/03/28 00:10:16;;;;;;;13.73;10.20;;;10.90;79.30;;;;;;5033007;28;20394;-69
2022/03/28 00:12:42;;;;;;;15.73;9.87;;;10.80;79.60;;;;;;5032730;28;20183;-70
2022/03/28 00:15:09;;;;;;;15.03;10.63;;;10.80;80.10;;;;;;5035524;28;20206;-69
2022/03/28 00:17:36;;;;;;;21.57;10.07;;;10.80;80.10;;;;;;5031093;28;20709;-70
2022/03/28 00:20:03;;;;;;;17.90;10.17;;;10.70;80.20;;;;;;5031481;28;20445;-69
2022/03/28 00:22:28;;;;;;;12.30;9.87;;;10.60;80.80;;;;;;5032170;28;20809;-69
2022/03/28 00:24:54;;;;;;;15.23;10.80;;;10.60;81.20;;;;;;5030497;28;20417;-69
2022/03/28 00:27:19;;;;;;;15.90;10.50;;;10.60;81.10;;;;;;5032872;28;20179;-70
2022/03/28 00:29:45;;;;;;;16.37;10.60;;;10.50;81.40;;;;;;5034647;28;20632;-70
2022/03/28 00:32:11;;;;;;;17.40;11.13;;;10.50;81.90;;;;;;5034762;28;20210;-70
2022/03/28 00:34:37;;;;;;;14.43;9.70;;;10.50;81.40;;;;;;5036746;28;20202;-70
2022/03/28 00:37:04;;;;;;;16.83;10.70;;;10.60;81.40;;;;;;5036364;28;20638;-70
2022/03/28 00:39:30;;;;;;;12.33;9.00;;;10.60;81.50;;;;;;5036628;28;20434;-70
2022/03/28 00:41:56;;;;;;;15.93;10.20;;;10.60;81.70;;;;;;5036405;28;20501;-70
2022/03/28 00:44:22;;;;;;;17.10;10.43;;;10.50;82.40;;;;;;5036416;28;20489;-70
2022/03/28 00:46:48;;;;;;;13.67;9.33;;;10.40;83.10;;;;;;5035666;28;20178;-70
2022/03/28 00:49:14;;;;;;;15.87;11.40;;;10.30;83.30;;;;;;5036023;28;20223;-70
2022/03/28 00:51:40;;;;;;;16.20;10.53;;;10.20;83.50;;;;;;5036077;28;20403;-71
2022/03/28 00:54:06;;;;;;;18.27;10.73;;;10.20;83.30;;;;;;5036144;28;20907;-69
2022/03/28 00:56:33;;;;;;;13.73;10.63;;;10.30;83.60;;;;;;5036012;28;20438;-70
2022/03/28 00:58:58;;;;;;;25.33;15.67;;;10.30;83.80;;;;;;5036205;28;20566;-68
2022/03/28 01:01:27;;;;;;;26.70;16.43;;;10.20;83.60;;;;;;5034158;28;20504;-70
2022/03/28 01:03:53;;;;;;;28.37;18.47;;;10.20;83.70;;;;;;5035877;28;20678;-69
2022/03/28 01:06:18;;;;;;;24.57;16.33;;;10.30;84.20;;;;;;5035526;28;20417;-70
2022/03/28 01:08:44;;;;;;;17.50;13.03;;;10.40;84.20;;;;;;5035699;28;20190;-69
2022/03/28 01:11:10;;;;;;;17.30;12.03;;;10.40;84.20;;;;;;5035738;28;20170;-69
2022/03/28 01:13:38;;;;;;;15.83;10.73;;;10.30;84.50;;;;;;5035810;28;20670;-70
2022/03/28 01:16:05;;;;;;;17.20;10.13;;;10.20;85.10;;;;;;5035004;28;20175;-70
2022/03/28 01:18:31;;;;;;;14.37;10.60;;;10.20;85.70;;;;;;5035366;28;20970;-69
2022/03/28 01:21:01;;;;;;;15.37;10.27;;;10.20;86.00;;;;;;5035273;28;20437;-69
2022/03/28 01:23:28;;;;;;;14.00;11.10;;;10.10;86.10;;;;;;5035805;28;20375;-70
2022/03/28 01:25:54;;;;;;;16.17;10.60;;;10.10;86.60;;;;;;5035731;28;20398;-69
2022/03/28 01:28:22;;;;;;;15.93;11.00;;;10.10;86.60;;;;;;5035587;28;20426;-69
2022/03/28 01:30:48;;;;;;;13.27;10.67;;;10.10;86.90;;;;;;5034022;28;20441;-70
2022/03/28 01:33:14;;;;;;;15.47;11.30;;;10.00;87.10;;;;;;5035292;28;20450;-70
2022/03/28 01:35:41;;;;;;;19.50;12.00;;;9.90;88.40;;;;;;5035319;28;20408;-72
2022/03/28 01:38:09;;;;;;;14.53;10.93;;;9.90;88.80;;;;;;5034945;28;20456;-70
2022/03/28 01:40:39;;;;;;;17.27;11.30;;;9.90;89.20;;;;;;5034973;28;20922;-70
2022/03/28 01:43:04;;;;;;;16.03;10.93;;;9.90;90.00;;;;;;5035458;28;20540;-69
2022/03/28 01:45:30;;;;;;;14.43;10.13;;;9.80;89.80;;;;;;5035349;28;20426;-69
2022/03/28 01:47:56;;;;;;;16.37;11.60;;;9.70;90.00;;;;;;5033334;28;20753;-69
2022/03/28 01:50:22;;;;;;;14.30;10.73;;;9.60;89.80;;;;;;5035344;28;20257;-69
2022/03/28 01:52:48;;;;;;;16.20;11.43;;;9.70;90.10;;;;;;5035233;28;20178;-69
2022/03/28 01:55:13;;;;;;;17.87;11.20;;;9.70;90.30;;;;;;5035445;28;20477;-69
2022/03/28 01:57:41;;;;;;;14.47;10.60;;;9.70;90.40;;;;;;5034946;28;20219;-70
2022/03/28 02:00:10;;;;;;;14.77;10.70;;;9.60;90.30;;;;;;5035182;28;20185;-70
2022/03/28 02:02:35;;;;;;;13.60;9.40;;;9.60;90.60;;;;;;5034734;28;20395;-70
2022/03/28 02:05:01;;;;;;;15.90;10.80;;;9.60;90.70;;;;;;5035148;28;20900;-69
2022/03/28 02:07:27;;;;;;;14.73;11.97;;;9.60;90.60;;;;;;5034440;28;20216;-70
2022/03/28 02:09:52;;;;;;;14.33;11.00;;;9.60;90.40;;;;;;5034644;28;20647;-70
2022/03/28 02:12:18;;;;;;;16.20;10.00;;;9.60;90.60;;;;;;5034908;28;20634;-70
2022/03/28 02:14:44;;;;;;;11.90;9.57;;;9.60;90.70;;;;;;5033363;28;20235;-70
2022/03/28 02:17:09;;;;;;;18.33;11.80;;;9.50;91.00;;;;;;5033818;28;20291;-69
2022/03/28 02:19:35;;;;;;;12.80;10.90;;;9.50;91.10;;;;;;5034328;28;20242;-70
2022/03/28 02:22:01;;;;;;;14.30;10.30;;;9.40;91.30;;;;;;5034585;28;20221;-70
2022/03/28 02:24:27;;;;;;;15.00;11.40;;;9.30;91.50;;;;;;5036350;28;20175;-70
2022/03/28 02:26:54;;;;;;;14.83;11.00;;;9.20;91.70;;;;;;5034171;28;20180;-70
2022/03/28 02:29:20;;;;;;;16.23;10.93;;;9.20;92.00;;;;;;5034274;28;20203;-69
2022/03/28 02:31:46;;;;;;;14.73;10.43;;;9.30;91.60;;;;;;5034247;28;20423;-69
2022/03/28 02:34:11;;;;;;;15.73;10.50;;;9.30;91.60;;;;;;5034426;28;20638;-70
2022/03/28 02:36:37;;;;;;;17.10;10.80;;;9.30;91.70;;;;;;5034090;28;20194;-70
2022/03/28 02:39:02;;;;;;;13.30;9.97;;;9.40;91.70;;;;;;5034000;28;20663;-69
2022/03/28 02:41:28;;;;;;;15.57;11.43;;;9.30;91.70;;;;;;5034099;28;20165;-69
2022/03/28 02:43:53;;;;;;;14.30;10.50;;;9.30;91.80;;;;;;5034320;28;20221;-69
2022/03/28 02:46:19;;;;;;;16.30;10.00;;;9.10;91.90;;;;;;5033741;28;20745;-69
2022/03/28 02:48:45;;;;;;;13.03;9.77;;;9.10;92.10;;;;;;5033853;28;20273;-69
2022/03/28 02:51:10;;;;;;;15.17;10.30;;;9.20;92.30;;;;;;5033622;28;20172;-69
2022/03/28 02:53:36;;;;;;;16.10;11.10;;;9.10;92.40;;;;;;5033576;28;20197;-69
2022/03/28 02:56:02;;;;;;;12.50;9.37;;;9.10;92.30;;;;;;5033909;28;20170;-69
2022/03/28 02:58:27;;;;;;;14.83;10.60;;;9.10;92.20;;;;;;5033669;28;20196;-70
2022/03/28 03:00:53;;;;;;;12.07;10.13;;;9.10;92.40;;;;;;5033555;28;20420;-70
2022/03/28 03:03:19;;;;;;;15.53;10.77;;;9.20;92.30;;;;;;5033342;28;20186;-69
2022/03/28 03:05:44;;;;;;;15.73;11.23;;;9.10;92.30;;;;;;5033508;28;20195;-69
2022/03/28 03:08:10;;;;;;;14.10;9.60;;;9.10;92.40;;;;;;5033478;28;20196;-69
2022/03/28 03:10:35;;;;;;;15.20;10.90;;;9.00;92.50;;;;;;5033560;28;20647;-69
2022/03/28 03:13:01;;;;;;;15.97;11.20;;;9.10;92.80;;;;;;5033612;28;20353;-68
2022/03/28 03:15:27;;;;;;;14.00;10.40;;;9.10;92.80;;;;;;5032781;28;20173;-70
2022/03/28 03:17:53;;;;;;;14.00;11.13;;;9.00;92.70;;;;;;5031648;28;20213;-70
2022/03/28 03:20:18;;;;;;;17.97;10.73;;;9.00;92.80;;;;;;5033962;28;20212;-69
2022/03/28 03:22:44;;;;;;;14.23;10.10;;;8.90;93.30;;;;;;5033545;28;20694;-71
2022/03/28 03:25:09;;;;;;;15.30;10.30;;;8.90;93.20;;;;;;5033453;28;20687;-69
2022/03/28 03:27:37;;;;;;;15.47;10.50;;;8.90;93.60;;;;;;5033453;28;20690;-70
2022/03/28 03:30:09;;;;;;;15.70;10.70;;;8.80;93.50;;;;;;5033448;28;20174;-70
2022/03/28 03:32:36;;;;;;;14.83;11.20;;;8.80;93.80;;;;;;5032944;28;20477;-69
2022/03/28 03:35:05;;;;;;;14.43;10.43;;;8.70;93.80;;;;;;5033125;28;20412;-69
2022/03/28 03:37:30;;;;;;;16.40;10.77;;;8.60;94.30;;;;;;5033598;28;20454;-69
2022/03/28 03:39:56;;;;;;;15.20;11.07;;;8.60;94.20;;;;;;5033696;28;20405;-69
2022/03/28 03:42:21;;;;;;;13.40;9.70;;;8.60;94.50;;;;;;5033337;28;20204;-69
2022/03/28 03:44:47;;;;;;;14.63;11.07;;;8.70;94.30;;;;;;5033004;28;20286;-69
2022/03/28 03:47:13;;;;;;;16.00;10.37;;;8.60;94.60;;;;;;5032478;28;20208;-69
2022/03/28 03:49:38;;;;;;;14.50;9.93;;;8.60;94.70;;;;;;5033110;28;20243;-69
2022/03/28 03:52:04;;;;;;;10.83;9.33;;;8.60;94.70;;;;;;5032986;28;20633;-69
2022/03/28 03:54:31;;;;;;;12.93;10.30;;;8.60;94.80;;;;;;5033261;28;20224;-70
2022/03/28 03:56:57;;;;;;;14.40;10.90;;;8.50;94.90;;;;;;5033070;28;20456;-69
2022/03/28 03:59:23;;;;;;;15.90;10.33;;;8.60;95.30;;;;;;5032982;28;20510;-69
2022/03/28 04:01:48;;;;;;;17.30;11.23;;;8.60;95.20;;;;;;5032575;28;20162;-69
2022/03/28 04:04:14;;;;;;;17.33;12.17;;;8.50;95.40;;;;;;5033983;28;20598;-70
2022/03/28 04:06:40;;;;;;;16.37;10.80;;;8.40;95.70;;;;;;5037268;28;20257;-69
2022/03/28 04:09:06;;;;;;;14.50;9.57;;;8.40;95.60;;;;;;5036830;28;20219;-69
2022/03/28 04:11:32;;;;;;;16.20;10.30;;;8.40;95.90;;;;;;5036720;28;20171;-69
2022/03/28 04:13:57;;;;;;;14.93;11.07;;;8.30;95.70;;;;;;5037003;28;20414;-69
2022/03/28 04:16:26;;;;;;;14.00;10.10;;;8.30;95.80;;;;;;5035479;28;20201;-68
2022/03/28 04:18:52;;;;;;;14.47;10.50;;;8.40;96.30;;;;;;5057748;23;20882;-69
2022/03/28 04:21:20;;;;;;;14.63;11.03;;;8.30;96.30;;;;;;5028521;28;20410;-69
2022/03/28 04:23:46;;;;;;;13.70;11.10;;;8.20;96.70;;;;;;5037299;28;20218;-68
2022/03/28 04:26:12;;;;;;;14.13;10.13;;;8.20;97.00;;;;;;5036182;28;20917;-68
2022/03/28 04:28:38;;;;;;;16.83;10.90;;;8.20;97.00;;;;;;5042337;28;20193;-67
2022/03/28 04:31:04;;;;;;;13.60;10.30;;;8.10;97.40;;;;;;5049345;28;20862;-69
2022/03/28 04:33:29;;;;;;;15.90;11.60;;;8.10;97.50;;;;;;5034916;28;20400;-68
2022/03/28 04:35:55;;;;;;;14.93;11.00;;;8.10;97.70;;;;;;5036128;28;20169;-67
2022/03/28 04:38:21;;;;;;;17.50;10.40;;;8.10;97.90;;;;;;5035843;28;20529;-67
2022/03/28 04:40:46;;;;;;;15.67;10.07;;;8.10;98.00;;;;;;5036290;28;20169;-67
2022/03/28 04:43:12;;;;;;;13.33;10.33;;;8.10;98.20;;;;;;5036113;28;20224;-67
2022/03/28 04:45:38;;;;;;;12.40;9.70;;;8.10;98.30;;;;;;5035753;28;20175;-67
2022/03/28 04:48:04;;;;;;;22.57;12.67;;;8.10;98.30;;;;;;5035212;28;20519;-67
2022/03/28 04:50:30;;;;;;;13.73;10.70;;;8.10;98.50;;;;;;5035701;28;20179;-68
2022/03/28 04:52:56;;;;;;;14.70;11.50;;;8.00;99.00;;;;;;5035735;28;20408;-67
2022/03/28 04:55:21;;;;;;;17.03;12.13;;;8.00;99.30;;;;;;5035611;28;20172;-68
2022/03/28 04:57:47;;;;;;;15.20;10.63;;;8.00;99.40;;;;;;5034235;28;20573;-67
2022/03/28 05:00:13;;;;;;;20.50;13.77;;;7.90;99.50;;;;;;5035599;28;20190;-68
2022/03/28 05:02:39;;;;;;;16.93;11.60;;;7.80;99.60;;;;;;5035090;28;20178;-68
2022/03/28 05:05:06;;;;;;;20.13;11.47;;;7.80;99.80;;;;;;5035476;28;20771;-67
2022/03/28 05:07:32;;;;;;;18.40;12.43;;;7.90;99.70;;;;;;5035689;28;20404;-67
2022/03/28 05:10:01;;;;;;;21.00;13.33;;;7.90;99.90;;;;;;5035366;28;20974;-67
2022/03/28 05:12:27;;;;;;;20.27;13.20;;;7.90;99.90;;;;;;5035498;28;20422;-68
2022/03/28 05:14:53;;;;;;;19.57;12.27;;;7.80;99.90;;;;;;5034733;28;20411;-69
2022/03/28 05:17:26;;;;;;;18.43;12.67;;;7.80;99.80;;;;;;5033362;28;20448;-69
2022/03/28 05:19:53;;;;;;;18.30;12.47;;;8.00;99.90;;;;;;5035119;28;20447;-69
2022/03/28 05:22:20;;;;;;;17.13;11.97;;;8.00;99.70;;;;;;5035689;28;20439;-68
2022/03/28 05:24:46;;;;;;;21.13;12.63;;;8.00;99.90;;;;;;5035300;28;20410;-68
2022/03/28 05:27:12;;;;;;;17.50;13.30;;;7.90;99.90;;;;;;5034920;28;20403;-69
2022/03/28 05:29:37;;;;;;;18.23;12.80;;;7.90;99.90;;;;;;5035283;28;20834;-68
2022/03/28 05:32:04;;;;;;;19.97;11.70;;;7.90;99.90;;;;;;5034690;28;20228;-67
2022/03/28 05:34:30;;;;;;;16.30;12.03;;;7.90;99.90;;;;;;5036516;28;20175;-68
2022/03/28 05:36:58;;;;;;;19.53;12.93;;;7.90;99.90;;;;;;5035186;28;20984;-68
2022/03/28 05:39:23;;;;;;;17.23;13.10;;;8.00;99.90;;;;;;5035030;28;20434;-68
2022/03/28 05:41:49;;;;;;;18.03;11.33;;;8.00;99.90;;;;;;5034809;28;20418;-68
2022/03/28 05:44:15;;;;;;;19.23;12.20;;;8.00;99.90;;;;;;5034644;28;20165;-68
2022/03/28 05:46:41;;;;;;;21.20;12.50;;;8.00;99.90;;;;;;5034673;28;20473;-69
2022/03/28 05:49:06;;;;;;;20.53;13.60;;;7.90;99.90;;;;;;5035329;28;20222;-69
2022/03/28 05:51:32;;;;;;;21.87;14.30;;;8.00;99.90;;;;;;5034858;28;20179;-68
2022/03/28 05:53:58;;;;;;;21.47;14.23;;;8.00;99.90;;;;;;5034816;28;20179;-68
2022/03/28 05:56:23;;;;;;;16.77;12.60;;;8.00;99.90;;;;;;5033403;28;20552;-67
2022/03/28 05:58:52;;;;;;;23.80;13.20;;;8.00;99.90;;;;;;5034740;28;20556;-67
2022/03/28 06:01:18;;;;;;;23.10;12.87;;;8.20;99.90;;;;;;5035690;28;20175;-69
2022/03/28 06:03:45;;;;;;;17.93;12.30;;;8.20;99.90;;;;;;5033497;28;20418;-68
2022/03/28 06:06:10;;;;;;;26.80;12.50;;;8.30;99.90;;;;;;5034452;28;20821;-68
2022/03/28 06:08:36;;;;;;;40.97;26.93;;;8.40;99.90;;;;;;5034224;28;20417;-68
2022/03/28 06:11:06;;;;;;;20.77;13.50;;;8.30;99.90;;;;;;5034058;28;20433;-68
2022/03/28 06:13:32;;;;;;;18.73;12.80;;;8.20;99.90;;;;;;5034565;28;20190;-68
2022/03/28 06:15:59;;;;;;;19.87;13.47;;;8.20;99.90;;;;;;5033559;28;20450;-70
2022/03/28 06:18:25;;;;;;;23.07;12.30;;;8.30;99.90;;;;;;5033365;28;20523;-68
2022/03/28 06:20:50;;;;;;;20.20;12.90;;;8.50;99.90;;;;;;5034225;28;20579;-68
2022/03/28 06:23:16;;;;;;;22.33;13.03;;;8.60;99.40;;;;;;5034200;28;20395;-69
2022/03/28 06:25:42;;;;;;;19.17;12.90;;;8.60;99.30;;;;;;5035078;28;20177;-68
2022/03/28 06:28:09;;;;;;;17.50;12.30;;;8.50;99.00;;;;;;5032943;28;20165;-68
2022/03/28 06:30:35;;;;;;;18.83;13.00;;;8.60;99.00;;;;;;5050970;28;20932;-68
2022/03/28 06:33:00;;;;;;;16.80;12.93;;;8.70;99.20;;;;;;5053587;28;20461;-69
2022/03/28 06:35:26;;;;;;;16.70;12.13;;;8.70;99.10;;;;;;5053938;28;20200;-68
2022/03/28 06:37:53;;;;;;;18.40;13.10;;;8.80;98.70;;;;;;5053980;28;20185;-68
2022/03/28 06:40:19;;;;;;;20.17;12.53;;;8.90;98.80;;;;;;5053986;28;20196;-68
2022/03/28 06:42:45;;;;;;;20.23;12.90;;;9.10;98.80;;;;;;5052757;28;20410;-68
2022/03/28 06:45:11;;;;;;;15.30;11.50;;;9.20;98.40;;;;;;5053626;28;20409;-68
2022/03/28 06:47:37;;;;;;;17.37;11.40;;;9.40;98.10;;;;;;5039804;28;20183;-68
2022/03/28 06:50:07;;;;;;;15.77;11.63;;;9.60;98.20;;;;;;5033667;28;20996;-68
2022/03/28 06:52:34;;;;;;;20.20;12.43;;;9.70;98.20;;;;;;5033205;28;20413;-68
2022/03/28 06:55:00;;;;;;;19.47;13.80;;;9.80;98.00;;;;;;5033571;28;20576;-67
2022/03/28 06:57:26;;;;;;;16.43;12.77;;;10.00;97.50;;;;;;5033441;28;20540;-67
2022/03/28 06:59:52;;;;;;;16.17;12.30;;;10.10;97.20;;;;;;5033261;28;20175;-69
2022/03/28 07:02:19;;;;;;;19.10;11.97;;;10.20;96.60;;;;;;5032825;28;20874;-68
2022/03/28 07:04:44;;;;;;;16.13;12.07;;;10.40;96.40;;;;;;5032793;28;20410;-67
2022/03/28 07:07:10;;;;;;;17.70;12.73;;;10.50;96.10;;;;;;5033375;28;20745;-67
2022/03/28 07:09:36;;;;;;;19.07;13.20;;;10.60;95.90;;;;;;5033005;28;20192;-67
2022/03/28 07:12:03;;;;;;;18.93;12.83;;;10.60;95.50;;;;;;5032356;28;20185;-67
2022/03/28 07:14:29;;;;;;;20.98;13.70;;;10.70;95.70;;;;;;5030916;28;20509;-68
2022/03/28 07:16:55;;;;;;;18.03;13.73;;;11.00;95.60;;;;;;5031647;28;20766;-68
2022/03/28 07:19:21;;;;;;;24.07;13.87;;;11.00;95.10;;;;;;5032943;28;20221;-69
2022/03/28 07:21:47;;;;;;;21.33;14.53;;;11.10;94.70;;;;;;5032915;28;20682;-68
2022/03/28 07:24:12;;;;;;;25.07;13.20;;;11.20;93.50;;;;;;5033164;28;20176;-68
2022/03/28 07:26:38;;;;;;;23.03;13.30;;;11.50;93.60;;;;;;5032966;28;20977;-69
2022/03/28 07:29:04;;;;;;;21.20;12.43;;;11.50;93.50;;;;;;5033151;28;20195;-70
2022/03/28 07:31:30;;;;;;;22.53;14.40;;;11.60;93.30;;;;;;5032565;28;20410;-69
2022/03/28 07:34:29;;;;;;;19.13;13.23;;;11.60;92.70;;;;;;5032803;28;20408;-69
2022/03/28 07:36:43;;;;;;;20.90;13.83;;;11.80;92.90;;;;;;5032356;28;20449;-68
2022/03/28 07:39:08;;;;;;;24.73;14.67;;;11.70;91.90;;;;;;5032284;28;20775;-69
2022/03/28 07:41:34;;;;;;;22.30;14.50;;;11.60;92.00;;;;;;5032508;28;20475;-69
2022/03/28 07:44:00;;;;;;;23.23;13.93;;;11.70;92.20;;;;;;5032559;28;20209;-69
2022/03/28 07:46:26;;;;;;;21.80;16.00;;;12.00;92.70;;;;;;5032679;28;20242;-67
2022/03/28 07:48:51;;;;;;;27.60;17.60;;;12.10;92.00;;;;;;5032417;28;20223;-68
2022/03/28 07:51:17;;;;;;;23.93;16.00;;;12.10;92.00;;;;;;5033142;28;20175;-68
2022/03/28 07:53:42;;;;;;;22.90;14.90;;;12.30;91.90;;;;;;5032963;28;20307;-68
2022/03/28 07:56:08;;;;;;;29.67;16.10;;;12.30;91.40;;;;;;5032810;28;20182;-68
2022/03/28 07:58:34;;;;;;;21.27;14.70;;;12.50;90.80;;;;;;5032522;28;20273;-68
2022/03/28 08:01:00;;;;;;;24.23;15.23;;;12.20;90.20;;;;;;5032480;28;20284;-68
2022/03/28 08:03:25;;;;;;;22.37;15.20;;;12.10;90.40;;;;;;5031913;28;20168;-69
2022/03/28 08:05:53;;;;;;;24.07;14.70;;;12.30;90.10;;;;;;5032347;28;20167;-69
2022/03/28 08:08:19;;;;;;;32.63;15.33;;;12.40;89.60;;;;;;5032423;28;20216;-69
2022/03/28 08:10:45;;;;;;;20.33;14.67;;;12.60;89.20;;;;;;5032462;28;20418;-69
2022/03/28 08:13:10;;;;;;;25.33;16.43;;;12.60;88.50;;;;;;5032413;28;20229;-68
2022/03/28 08:15:36;;;;;;;23.73;14.60;;;12.50;89.40;;;;;;5032142;28;20237;-69
2022/03/28 08:18:02;;;;;;;21.33;14.50;;;12.70;88.20;;;;;;5030833;28;20650;-71
2022/03/28 08:20:28;;;;;;;22.23;15.83;;;12.80;87.80;;;;;;5032745;28;20156;-69
2022/03/28 08:22:54;;;;;;;24.13;15.63;;;12.70;88.30;;;;;;5032538;28;20423;-70
2022/03/28 08:25:21;;;;;;;26.93;15.07;;;12.60;89.10;;;;;;5034983;28;20175;-70
2022/03/28 08:27:47;;;;;;;27.33;17.27;;;12.70;89.50;;;;;;5032863;28;20779;-69
2022/03/28 08:30:13;;;;;;;27.80;16.17;;;12.80;89.10;;;;;;5033293;28;20552;-69
2022/03/28 08:32:41;;;;;;;20.43;15.10;;;12.90;89.10;;;;;;5032297;28;20914;-69
2022/03/28 08:35:07;;;;;;;20.60;15.20;;;12.90;89.00;;;;;;5032623;28;20417;-69
2022/03/28 08:37:33;;;;;;;23.07;15.83;;;13.00;89.30;;;;;;5031342;28;20451;-69
2022/03/28 08:39:59;;;;;;;29.30;15.20;;;13.10;89.10;;;;;;5033004;28;20436;-69
2022/03/28 08:42:25;;;;;;;23.20;16.10;;;13.20;88.90;;;;;;5032706;28;20188;-69
2022/03/28 08:44:52;;;;;;;20.63;15.20;;;13.30;88.50;;;;;;5032535;28;20477;-69
2022/03/28 08:47:19;;;;;;;22.60;15.90;;;13.50;87.80;;;;;;5030894;28;20902;-69
2022/03/28 08:49:51;;;;;;;39.40;17.50;;;13.50;87.70;;;;;;5032423;28;20434;-70
2022/03/28 08:52:16;;;;;;;26.33;16.63;;;13.60;87.10;;;;;;5036390;28;20502;-70
2022/03/28 08:54:43;;;;;;;20.60;15.10;;;13.70;87.10;;;;;;5035876;28;20522;-70
2022/03/28 08:57:11;;;;;;;31.60;17.37;;;14.00;86.40;;;;;;5036381;28;20196;-69
2022/03/28 08:59:37;;;;;;;22.40;15.80;;;14.20;86.00;;;;;;5034165;28;20476;-69
2022/03/28 09:02:02;;;;;;;25.43;16.30;;;14.50;86.00;;;;;;5035555;28;20941;-69
2022/03/28 09:04:28;;;;;;;24.33;15.60;;;14.60;84.60;;;;;;5035651;28;20160;-69
2022/03/28 09:06:53;;;;;;;23.77;17.20;;;14.50;83.90;;;;;;5035569;28;20516;-69
2022/03/28 09:09:27;;;;;;;27.17;17.43;;;14.50;83.70;;;;;;5035345;28;20273;-68
2022/03/28 09:11:55;;;;;;;27.63;16.00;;;14.80;83.10;;;;;;5035573;28;20183;-68
2022/03/28 09:14:31;;;;;;;20.60;16.40;;;14.90;82.20;;;;;;5035421;28;20417;-68
2022/03/28 09:17:04;;;;;;;24.97;16.80;;;14.90;81.60;;;;;;5033905;28;20475;-69
2022/03/28 09:19:51;;;;;;;24.70;15.83;;;15.00;82.30;;;;;;5035144;28;20452;-70
2022/03/28 09:22:31;;;;;;;23.47;16.13;;;15.20;80.80;;;;;;5035454;28;20392;-69
2022/03/28 09:24:59;;;;;;;23.47;16.60;;;15.30;80.60;;;;;;5033791;28;20407;-68
2022/03/28 09:27:27;;;;;;;25.37;16.63;;;15.50;79.40;;;;;;5035066;28;20907;-69
2022/03/28 09:30:03;;;;;;;24.77;16.60;;;15.80;80.00;;;;;;5035081;28;20461;-70
2022/03/28 09:32:35;;;;;;;24.10;16.97;;;16.00;78.30;;;;;;5034432;28;20945;-70
2022/03/28 09:35:02;;;;;;;27.07;17.50;;;16.10;77.00;;;;;;5035049;28;20425;-69
2022/03/28 09:37:28;;;;;;;22.87;16.93;;;16.30;76.10;;;;;;5034595;28;20449;-69
2022/03/28 09:39:54;;;;;;;20.43;15.70;;;16.40;75.40;;;;;;5034353;28;20421;-69
2022/03/28 09:42:19;;;;;;;22.20;15.70;;;16.50;74.70;;;;;;5034748;28;20529;-69
2022/03/28 09:44:48;;;;;;;20.00;16.63;;;16.50;74.80;;;;;;5034667;28;20163;-68
2022/03/28 09:47:17;;;;;;;19.93;16.30;;;16.70;74.50;;;;;;5034229;28;20175;-68
2022/03/28 09:49:44;;;;;;;22.10;16.10;;;16.80;73.50;;;;;;5034369;28;20433;-68
2022/03/28 09:52:21;;;;;;;26.93;17.03;;;17.00;72.90;;;;;;5033410;28;20410;-68
2022/03/28 09:54:57;;;;;;;26.10;17.20;;;17.00;73.00;;;;;;5034690;28;20409;-69
2022/03/28 09:57:49;;;;;;;24.87;17.07;;;16.90;72.40;;;;;;5034546;28;20540;-69
2022/03/28 10:00:20;;;;;;;21.60;17.10;;;16.90;72.50;;;;;;5034093;28;20517;-69
2022/03/28 10:02:47;;;;;;;22.80;15.17;;;17.10;72.70;;;;;;5035174;28;20383;-70
2022/03/28 10:05:13;;;;;;;23.87;17.70;;;17.50;74.50;;;;;;5034378;28;20422;-70
2022/03/28 10:07:39;;;;;;;25.80;16.90;;;17.70;71.60;;;;;;5033362;28;20450;-68
2022/03/28 10:10:06;;;;;;;20.53;16.50;;;18.00;71.10;;;;;;5034063;28;20496;-70
2022/03/28 10:12:32;;;;;;;22.60;16.30;;;18.00;70.30;;;;;;5034488;28;20772;-69
2022/03/28 10:15:00;;;;;;;21.83;16.87;;;17.90;70.90;;;;;;5034187;28;20402;-70
2022/03/28 10:17:26;;;;;;;29.03;17.60;;;18.00;70.30;;;;;;5033221;28;20539;-69
2022/03/28 10:19:52;;;;;;;19.77;16.30;;;18.10;70.80;;;;;;5057399;23;20482;-69
2022/03/28 10:22:24;;;;;;;25.43;16.50;;;18.30;70.20;;;;;;5034727;28;20481;-69
2022/03/28 10:24:52;;;;;;;21.03;17.80;;;18.50;69.90;;;;;;5032923;28;20159;-69
2022/03/28 10:27:18;;;;;;;21.30;17.27;;;18.60;69.40;;;;;;5034280;28;20473;-69
2022/03/28 10:29:45;;;;;;;23.17;18.10;;;18.40;69.80;;;;;;5034189;28;20479;-69
2022/03/28 10:32:18;;;;;;;27.10;19.20;;;18.40;70.40;;;;;;5036324;28;20441;-69
2022/03/28 10:34:56;;;;;;;23.93;18.70;;;18.30;70.10;;;;;;5034244;28;20750;-68
2022/03/28 10:37:27;;;;;;;27.17;17.13;;;18.40;71.00;;;;;;5034167;28;20446;-69
2022/03/28 10:40:23;;;;;;;25.77;18.27;;;18.70;70.10;;;;;;5033847;28;20434;-69
2022/03/28 10:43:04;;;;;;;21.20;17.90;;;18.90;69.40;;;;;;5030051;28;20418;-69
2022/03/28 10:45:34;;;;;;;26.97;18.43;;;19.00;69.50;;;;;;5033651;28;20448;-69
2022/03/28 10:48:00;;;;;;;23.40;17.60;;;19.10;68.50;;;;;;5033170;28;20468;-69
2022/03/28 10:50:34;;;;;;;21.10;17.40;;;19.30;68.40;;;;;;5033870;28;20422;-69
2022/03/28 10:53:03;;;;;;;27.87;17.67;;;19.40;67.40;;;;;;5033873;28;20167;-69
2022/03/28 10:55:43;;;;;;;19.87;16.60;;;19.50;66.30;;;;;;5033786;28;20410;-68
2022/03/28 10:58:11;;;;;;;23.30;17.70;;;19.90;65.70;;;;;;5033259;28;20429;-68
2022/03/28 11:00:38;;;;;;;27.77;19.20;;;20.80;65.00;;;;;;5033519;28;20507;-69
2022/03/28 11:03:04;;;;;;;27.90;17.17;;;21.20;61.40;;;;;;5032858;28;20402;-70
2022/03/28 11:05:50;;;;;;;20.20;16.83;;;21.30;59.70;;;;;;5033805;28;20171;-70
2022/03/28 11:08:33;;;;;;;27.80;18.53;;;21.30;59.00;;;;;;5032628;28;20251;-70
2022/03/28 11:11:19;;;;;;;23.03;18.30;;;21.50;58.20;;;;;;5033406;28;20410;-70
2022/03/28 11:14:05;;;;;;;25.47;19.20;;;21.90;58.00;;;;;;5032836;28;20409;-70
2022/03/28 11:16:51;;;;;;;19.33;16.50;;;22.90;55.30;;;;;;5032213;28;20390;-70
2022/03/28 11:19:34;;;;;;;21.40;16.83;;;24.10;52.10;;;;;;5033078;28;20458;-69
2022/03/28 11:22:08;;;;;;;22.50;17.20;;;24.20;50.00;;;;;;5033347;28;20399;-69
2022/03/28 11:24:54;;;;;;;26.40;17.77;;;23.40;50.20;;;;;;5033471;28;20414;-72
2022/03/28 11:27:29;;;;;;;26.83;17.33;;;23.50;50.80;;;;;;5033475;28;20413;-71
2022/03/28 11:30:10;;;;;;;21.93;16.60;;;24.30;48.90;;;;;;5033163;28;20429;-70
2022/03/28 11:32:37;;;;;;;22.77;16.37;;;25.20;46.80;;;;;;5032780;28;20756;-71
2022/03/28 11:35:04;;;;;;;18.87;15.70;;;26.80;43.90;;;;;;5033076;28;20402;-71
2022/03/28 11:37:30;;;;;;;25.80;18.47;;;27.00;42.30;;;;;;5032821;28;20454;-71
2022/03/28 11:39:58;;;;;;;21.83;17.70;;;26.50;42.20;;;;;;5033075;28;20445;-70
2022/03/28 11:42:26;;;;;;;19.90;16.27;;;26.40;42.30;;;;;;5032898;28;20175;-70
2022/03/28 11:44:53;;;;;;;25.17;18.00;;;25.50;42.60;;;;;;5033202;28;20750;-72
2022/03/28 11:47:19;;;;;;;20.37;17.37;;;24.10;44.20;;;;;;5032269;28;20443;-71
2022/03/28 11:49:56;;;;;;;23.47;17.37;;;24.30;45.10;;;;;;5032747;28;20513;-72
2022/03/28 11:52:22;;;;;;;21.17;18.40;;;24.50;44.80;;;;;;5032569;28;20632;-71
2022/03/28 11:54:48;;;;;;;24.83;16.80;;;25.10;43.60;;;;;;5032688;28;20405;-71
2022/03/28 12:00:23;;;;;;;21.57;18.00;;;25.70;42.50;;;;;;5032827;28;20404;-72
2022/03/28 12:02:50;;;;;;;27.70;18.40;;;25.10;41.70;;;;;;5032270;28;20426;-72
2022/03/28 12:05:36;;;;;;;22.03;16.30;;;25.30;42.90;;;;;;5032550;28;20398;-72
2022/03/28 12:08:14;;;;;;;20.63;16.90;;;25.50;42.10;;;;;;5032659;28;20864;-72
2022/03/28 12:10:42;;;;;;;21.33;17.00;;;25.40;42.20;;;;;;5032409;28;20858;-71
2022/03/28 12:13:10;;;;;;;22.77;18.23;;;26.70;40.90;;;;;;5031263;28;20424;-71
2022/03/28 12:15:43;;;;;;;20.17;17.00;;;26.70;40.90;;;;;;5032619;28;20164;-72
2022/03/28 12:18:10;;;;;;;22.50;17.73;;;27.50;40.20;;;;;;5031142;28;20958;-72
2022/03/28 12:20:38;;;;;;;22.60;18.23;;;28.30;40.00;;;;;;5032326;28;20442;-71
2022/03/28 12:23:05;;;;;;;23.00;19.37;;;28.90;38.50;;;;;;5032872;28;20747;-71
2022/03/28 12:25:39;;;;;;;21.83;17.73;;;28.10;39.00;;;;;;5031809;28;20434;-71
2022/03/28 12:28:07;;;;;;;25.70;18.30;;;28.30;40.10;;;;;;5034981;28;20923;-71
2022/03/28 12:30:42;;;;;;;22.73;18.67;;;28.20;39.10;;;;;;5037644;28;20432;-70
2022/03/28 12:33:17;;;;;;;33.90;19.70;;;27.00;41.00;;;;;;5016206;28;20401;-71
2022/03/28 12:35:46;;;;;;;30.13;20.00;;;26.60;41.50;;;;;;5016672;28;20402;-71